sensor_id;sensor_type;location;lat;lon;timestamp;temperature;humidity
29207;DHT22;16247;50.840;4.382;2023-02-17T00:01:24;12.10;99.90
29207;DHT22;16247;50.840;4.382;2023-02-17T00:03:57;11.90;99.90
29207;DHT22;16247;50.840;4.382;2023-02-17T00:06:25;12.10;99.90
29207;DHT22;16247;50.840;4.382;2023-02-17T00:08:51;12.00;99.90
29207;DHT22;16247;50.840;4.382;2023-02-17T00:11:18;12.20;99.90
29207;DHT22;16247;50.840;4.382;2023-02-17T00:13:44;12.30;99.90
29207;DHT22;16247;50.840;4.382;2023-02-17T00:16:24;12.20;99.90
29207;DHT22;16247;50.840;4.382;2023-02-17T00:18:58;12.10;99.90
29207;DHT22;16247;50.840;4.382;2023-02-17T00:21:28;12.10;99.90
29207;DHT22;16247;50.840;4.382;2023-02-17T00:23:56;12.10;99.90
29207;DHT22;16247;50.840;4.382;2023-02-17T00:26:22;12.30;99.90
29207;DHT22;16247;50.840;4.382;2023-02-17T00:28:49;12.20;99.90
29207;DHT22;16247;50.840;4.382;2023-02-17T00:31:18;12.30;99.90
29207;DHT22;16247;50.840;4.382;2023-02-17T00:33:45;12.20;99.90
29207;DHT22;16247;50.840;4.382;2023-02-17T00:36:15;12.20;99.90
29207;DHT22;16247;50.840;4.382;2023-02-17T00:38:42;12.20;99.90
29207;DHT22;16247;50.840;4.382;2023-02-17T00:41:08;12.30;99.90
29207;DHT22;16247;50.840;4.382;2023-02-17T00:43:34;12.20;99.90
29207;DHT22;16247;50.840;4.382;2023-02-17T00:46:00;12.20;99.90
29207;DHT22;16247;50.840;4.382;2023-02-17T00:48:29;12.10;99.90
29207;DHT22;16247;50.840;4.382;2023-02-17T00:50:55;12.00;99.90
29207;DHT22;16247;50.840;4.382;2023-02-17T00:53:21;12.00;99.90
29207;DHT22;16247;50.840;4.382;2023-02-17T00:55:46;12.00;99.90
29207;DHT22;16247;50.840;4.382;2023-02-17T00:58:15;12.00;99.90
29207;DHT22;16247;50.840;4.382;2023-02-17T01:00:42;12.30;99.90
29207;DHT22;16247;50.840;4.382;2023-02-17T01:03:08;12.10;99.90
29207;DHT22;16247;50.840;4.382;2023-02-17T01:05:38;12.10;99.90
29207;DHT22;16247;50.840;4.382;2023-02-17T01:08:05;12.10;99.90
29207;DHT22;16247;50.840;4.382;2023-02-17T01:10:31;12.20;99.90
29207;DHT22;16247;50.840;4.382;2023-02-17T01:12:57;12.30;99.90
29207;DHT22;16247;50.840;4.382;2023-02-17T01:15:22;12.00;99.90
29207;DHT22;16247;50.840;4.382;2023-02-17T01:17:48;12.00;99.90
29207;DHT22;16247;50.840;4.382;2023-02-17T01:20:14;12.00;99.90
29207;DHT22;16247;50.840;4.382;2023-02-17T01:22:39;11.90;99.90
29207;DHT22;16247;50.840;4.382;2023-02-17T01:25:05;12.00;99.90
29207;DHT22;16247;50.840;4.382;2023-02-17T01:27:32;12.10;99.90
29207;DHT22;16247;50.840;4.382;2023-02-17T01:29:58;12.10;99.90
29207;DHT22;16247;50.840;4.382;2023-02-17T01:32:23;12.10;99.90
29207;DHT22;16247;50.840;4.382;2023-02-17T01:34:49;12.10;99.90
29207;DHT22;16247;50.840;4.382;2023-02-17T01:37:15;11.90;99.90
29207;DHT22;16247;50.840;4.382;2023-02-17T01:39:40;11.90;99.90
29207;DHT22;16247;50.840;4.382;2023-02-17T01:42:13;11.90;99.90
29207;DHT22;16247;50.840;4.382;2023-02-17T01:45:27;11.90;99.90
29207;DHT22;16247;50.840;4.382;2023-02-17T01:50:31;11.80;99.90
29207;DHT22;16247;50.840;4.382;2023-02-17T01:52:59;11.90;99.90
29207;DHT22;16247;50.840;4.382;2023-02-17T01:55:26;11.70;99.90
29207;DHT22;16247;50.840;4.382;2023-02-17T01:57:57;11.70;99.90
29207;DHT22;16247;50.840;4.382;2023-02-17T02:00:25;11.90;99.90
29207;DHT22;16247;50.840;4.382;2023-02-17T02:02:52;11.60;99.90
29207;DHT22;16247;50.840;4.382;2023-02-17T02:05:18;11.60;99.90
29207;DHT22;16247;50.840;4.382;2023-02-17T02:07:46;11.70;99.90
29207;DHT22;16247;50.840;4.382;2023-02-17T02:10:13;11.80;99.90
29207;DHT22;16247;50.840;4.382;2023-02-17T02:12:41;11.70;99.90
29207;DHT22;16247;50.840;4.382;2023-02-17T02:23:56;11.40;99.90
29207;DHT22;16247;50.840;4.382;2023-02-17T02:26:43;11.40;99.90
29207;DHT22;16247;50.840;4.382;2023-02-17T02:34:45;11.40;99.90
29207;DHT22;16247;50.840;4.382;2023-02-17T02:37:26;11.50;99.90
29207;DHT22;16247;50.840;4.382;2023-02-17T02:39:56;11.40;99.90
29207;DHT22;16247;50.840;4.382;2023-02-17T02:42:24;11.40;99.90
29207;DHT22;16247;50.840;4.382;2023-02-17T02:44:51;11.40;99.90
29207;DHT22;16247;50.840;4.382;2023-02-17T02:47:43;11.60;99.90
29207;DHT22;16247;50.840;4.382;2023-02-17T02:50:13;11.40;99.90
29207;DHT22;16247;50.840;4.382;2023-02-17T02:55:40;11.40;99.90
29207;DHT22;16247;50.840;4.382;2023-02-17T02:58:45;11.40;99.90
29207;DHT22;16247;50.840;4.382;2023-02-17T03:06:52;11.40;99.90
29207;DHT22;16247;50.840;4.382;2023-02-17T03:09:26;11.30;99.90
29207;DHT22;16247;50.840;4.382;2023-02-17T03:11:55;11.30;99.90
29207;DHT22;16247;50.840;4.382;2023-02-17T03:14:22;11.40;99.90
29207;DHT22;16247;50.840;4.382;2023-02-17T03:16:50;11.50;99.90
29207;DHT22;16247;50.840;4.382;2023-02-17T03:19:18;11.50;99.90
29207;DHT22;16247;50.840;4.382;2023-02-17T03:21:50;11.40;99.90
29207;DHT22;16247;50.840;4.382;2023-02-17T03:24:20;11.60;99.90
29207;DHT22;16247;50.840;4.382;2023-02-17T03:26:47;11.40;99.90
29207;DHT22;16247;50.840;4.382;2023-02-17T03:29:13;11.40;99.90
29207;DHT22;16247;50.840;4.382;2023-02-17T03:31:40;11.50;99.90
29207;DHT22;16247;50.840;4.382;2023-02-17T03:34:08;11.20;99.90
29207;DHT22;16247;50.840;4.382;2023-02-17T03:36:34;11.20;99.90
29207;DHT22;16247;50.840;4.382;2023-02-17T03:39:00;11.40;99.90
29207;DHT22;16247;50.840;4.382;2023-02-17T03:41:25;11.40;99.90
29207;DHT22;16247;50.840;4.382;2023-02-17T03:46:55;11.20;99.90
29207;DHT22;16247;50.840;4.382;2023-02-17T03:49:21;11.20;99.90
29207;DHT22;16247;50.840;4.382;2023-02-17T03:51:46;11.20;99.90
29207;DHT22;16247;50.840;4.382;2023-02-17T03:54:12;11.30;99.90
29207;DHT22;16247;50.840;4.382;2023-02-17T03:56:37;11.20;99.90
29207;DHT22;16247;50.840;4.382;2023-02-17T03:59:03;11.20;99.90
29207;DHT22;16247;50.840;4.382;2023-02-17T04:01:31;11.40;99.90
29207;DHT22;16247;50.840;4.382;2023-02-17T04:03:56;11.20;99.90
29207;DHT22;16247;50.840;4.382;2023-02-17T04:06:23;11.40;99.90
29207;DHT22;16247;50.840;4.382;2023-02-17T04:08:49;11.40;99.90
29207;DHT22;16247;50.840;4.382;2023-02-17T04:11:14;11.30;99.90
29207;DHT22;16247;50.840;4.382;2023-02-17T04:13:41;11.20;99.90
29207;DHT22;16247;50.840;4.382;2023-02-17T04:16:11;11.40;99.90
29207;DHT22;16247;50.840;4.382;2023-02-17T04:18:37;11.20;99.90
29207;DHT22;16247;50.840;4.382;2023-02-17T04:21:03;11.30;99.90
29207;DHT22;16247;50.840;4.382;2023-02-17T04:23:29;11.30;99.90
29207;DHT22;16247;50.840;4.382;2023-02-17T04:25:54;11.40;99.90
29207;DHT22;16247;50.840;4.382;2023-02-17T04:28:20;11.50;99.90
29207;DHT22;16247;50.840;4.382;2023-02-17T04:30:48;11.40;99.90
29207;DHT22;16247;50.840;4.382;2023-02-17T04:33:15;11.40;99.90
29207;DHT22;16247;50.840;4.382;2023-02-17T04:35:40;11.30;99.90
29207;DHT22;16247;50.840;4.382;2023-02-17T04:38:07;11.20;99.90
29207;DHT22;16247;50.840;4.382;2023-02-17T04:40:34;11.40;99.90
29207;DHT22;16247;50.840;4.382;2023-02-17T04:42:59;11.20;99.90
29207;DHT22;16247;50.840;4.382;2023-02-17T04:45:25;11.10;99.90
29207;DHT22;16247;50.840;4.382;2023-02-17T04:47:50;11.40;99.90
29207;DHT22;16247;50.840;4.382;2023-02-17T04:50:16;11.20;99.90
29207;DHT22;16247;50.840;4.382;2023-02-17T04:52:42;11.20;99.90
29207;DHT22;16247;50.840;4.382;2023-02-17T04:55:09;11.20;99.90
29207;DHT22;16247;50.840;4.382;2023-02-17T04:57:35;11.10;99.90
29207;DHT22;16247;50.840;4.382;2023-02-17T05:00:01;11.40;99.90
29207;DHT22;16247;50.840;4.382;2023-02-17T05:02:26;11.10;99.90
29207;DHT22;16247;50.840;4.382;2023-02-17T05:04:55;11.20;99.90
29207;DHT22;16247;50.840;4.382;2023-02-17T05:07:22;11.20;99.90
29207;DHT22;16247;50.840;4.382;2023-02-17T05:09:50;11.40;99.90
29207;DHT22;16247;50.840;4.382;2023-02-17T05:12:16;11.30;99.90
29207;DHT22;16247;50.840;4.382;2023-02-17T05:14:42;11.30;99.90
29207;DHT22;16247;50.840;4.382;2023-02-17T05:17:07;11.10;99.90
29207;DHT22;16247;50.840;4.382;2023-02-17T05:19:33;11.10;99.90
29207;DHT22;16247;50.840;4.382;2023-02-17T05:21:58;11.10;99.90
29207;DHT22;16247;50.840;4.382;2023-02-17T05:24:24;11.10;99.90
29207;DHT22;16247;50.840;4.382;2023-02-17T05:26:50;11.10;99.90
29207;DHT22;16247;50.840;4.382;2023-02-17T05:29:16;11.10;99.90
29207;DHT22;16247;50.840;4.382;2023-02-17T05:31:43;11.20;99.90
29207;DHT22;16247;50.840;4.382;2023-02-17T05:34:08;11.30;99.90
29207;DHT22;16247;50.840;4.382;2023-02-17T05:36:34;11.20;99.90
29207;DHT22;16247;50.840;4.382;2023-02-17T05:38:59;11.20;99.90
29207;DHT22;16247;50.840;4.382;2023-02-17T05:41:25;11.20;99.90
29207;DHT22;16247;50.840;4.382;2023-02-17T05:43:53;11.20;99.90
29207;DHT22;16247;50.840;4.382;2023-02-17T05:46:20;11.30;99.90
29207;DHT22;16247;50.840;4.382;2023-02-17T05:48:47;11.10;99.90
29207;DHT22;16247;50.840;4.382;2023-02-17T05:51:13;11.30;99.90
29207;DHT22;16247;50.840;4.382;2023-02-17T05:53:42;11.20;99.90
29207;DHT22;16247;50.840;4.382;2023-02-17T05:56:07;11.30;99.90
29207;DHT22;16247;50.840;4.382;2023-02-17T05:58:33;11.20;99.90
29207;DHT22;16247;50.840;4.382;2023-02-17T06:00:59;11.10;99.90
29207;DHT22;16247;50.840;4.382;2023-02-17T06:03:24;11.40;99.90
29207;DHT22;16247;50.840;4.382;2023-02-17T06:05:50;11.10;99.90
29207;DHT22;16247;50.840;4.382;2023-02-17T06:08:19;11.30;99.90
29207;DHT22;16247;50.840;4.382;2023-02-17T06:10:44;11.20;99.90
29207;DHT22;16247;50.840;4.382;2023-02-17T06:13:11;11.10;99.90
29207;DHT22;16247;50.840;4.382;2023-02-17T06:15:37;11.20;99.90
29207;DHT22;16247;50.840;4.382;2023-02-17T06:18:02;11.00;99.90
29207;DHT22;16247;50.840;4.382;2023-02-17T06:20:28;11.00;99.90
29207;DHT22;16247;50.840;4.382;2023-02-17T06:22:53;11.00;99.90
29207;DHT22;16247;50.840;4.382;2023-02-17T06:25:22;11.00;99.90
29207;DHT22;16247;50.840;4.382;2023-02-17T06:27:48;10.90;99.90
29207;DHT22;16247;50.840;4.382;2023-02-17T06:30:15;11.10;99.90
29207;DHT22;16247;50.840;4.382;2023-02-17T06:32:44;11.00;99.90
29207;DHT22;16247;50.840;4.382;2023-02-17T06:35:10;11.00;99.90
29207;DHT22;16247;50.840;4.382;2023-02-17T06:37:35;11.00;99.90
29207;DHT22;16247;50.840;4.382;2023-02-17T06:40:03;11.00;99.90
29207;DHT22;16247;50.840;4.382;2023-02-17T06:42:32;11.00;99.90
29207;DHT22;16247;50.840;4.382;2023-02-17T06:45:00;10.90;99.90
29207;DHT22;16247;50.840;4.382;2023-02-17T06:47:28;11.00;99.90
29207;DHT22;16247;50.840;4.382;2023-02-17T06:49:54;11.00;99.90
29207;DHT22;16247;50.840;4.382;2023-02-17T06:52:20;11.00;99.90
29207;DHT22;16247;50.840;4.382;2023-02-17T06:54:48;11.30;99.90
29207;DHT22;16247;50.840;4.382;2023-02-17T06:57:15;11.10;99.90
29207;DHT22;16247;50.840;4.382;2023-02-17T06:59:42;11.20;99.90
29207;DHT22;16247;50.840;4.382;2023-02-17T07:02:12;11.10;99.90
29207;DHT22;16247;50.840;4.382;2023-02-17T07:04:39;11.30;99.90
29207;DHT22;16247;50.840;4.382;2023-02-17T07:07:05;11.20;99.90
29207;DHT22;16247;50.840;4.382;2023-02-17T07:09:30;11.10;99.90
29207;DHT22;16247;50.840;4.382;2023-02-17T07:11:58;11.20;99.90
29207;DHT22;16247;50.840;4.382;2023-02-17T07:14:25;11.10;99.90
29207;DHT22;16247;50.840;4.382;2023-02-17T07:16:51;11.10;99.90
29207;DHT22;16247;50.840;4.382;2023-02-17T07:19:18;11.20;99.90
29207;DHT22;16247;50.840;4.382;2023-02-17T07:21:44;11.30;99.90
29207;DHT22;16247;50.840;4.382;2023-02-17T07:24:10;11.30;99.90
29207;DHT22;16247;50.840;4.382;2023-02-17T07:26:44;11.30;99.90
29207;DHT22;16247;50.840;4.382;2023-02-17T07:29:10;11.40;99.90
29207;DHT22;16247;50.840;4.382;2023-02-17T07:31:36;11.40;99.90
29207;DHT22;16247;50.840;4.382;2023-02-17T07:34:03;11.40;99.90
29207;DHT22;16247;50.840;4.382;2023-02-17T07:36:29;11.40;99.90
29207;DHT22;16247;50.840;4.382;2023-02-17T07:38:56;11.40;99.90
29207;DHT22;16247;50.840;4.382;2023-02-17T07:41:24;11.50;99.90
29207;DHT22;16247;50.840;4.382;2023-02-17T07:43:54;11.40;99.90
29207;DHT22;16247;50.840;4.382;2023-02-17T07:46:20;11.50;99.90
29207;DHT22;16247;50.840;4.382;2023-02-17T07:48:47;11.60;99.90
29207;DHT22;16247;50.840;4.382;2023-02-17T07:51:16;11.50;99.90
29207;DHT22;16247;50.840;4.382;2023-02-17T07:53:42;11.40;99.90
29207;DHT22;16247;50.840;4.382;2023-02-17T07:56:11;11.50;99.90
29207;DHT22;16247;50.840;4.382;2023-02-17T07:58:39;11.30;99.90
29207;DHT22;16247;50.840;4.382;2023-02-17T08:01:18;11.30;99.90
29207;DHT22;16247;50.840;4.382;2023-02-17T08:03:46;11.30;99.90
29207;DHT22;16247;50.840;4.382;2023-02-17T08:06:14;11.40;99.90
29207;DHT22;16247;50.840;4.382;2023-02-17T08:08:42;11.40;99.90
29207;DHT22;16247;50.840;4.382;2023-02-17T08:11:29;11.50;99.90
29207;DHT22;16247;50.840;4.382;2023-02-17T08:14:13;11.60;99.90
29207;DHT22;16247;50.840;4.382;2023-02-17T08:16:40;11.50;99.90
29207;DHT22;16247;50.840;4.382;2023-02-17T08:19:06;11.40;99.90
29207;DHT22;16247;50.840;4.382;2023-02-17T08:21:34;11.60;99.90
29207;DHT22;16247;50.840;4.382;2023-02-17T08:23:59;11.40;99.90
29207;DHT22;16247;50.840;4.382;2023-02-17T08:26:26;11.50;99.90
29207;DHT22;16247;50.840;4.382;2023-02-17T08:28:53;11.50;99.90
29207;DHT22;16247;50.840;4.382;2023-02-17T08:31:23;11.70;99.90
29207;DHT22;16247;50.840;4.382;2023-02-17T08:33:51;11.70;99.90
29207;DHT22;16247;50.840;4.382;2023-02-17T08:36:17;11.80;99.90
29207;DHT22;16247;50.840;4.382;2023-02-17T08:38:43;11.70;99.90
29207;DHT22;16247;50.840;4.382;2023-02-17T08:41:27;11.70;99.90
29207;DHT22;16247;50.840;4.382;2023-02-17T08:43:54;11.70;99.90
29207;DHT22;16247;50.840;4.382;2023-02-17T08:46:20;11.80;99.90
29207;DHT22;16247;50.840;4.382;2023-02-17T08:48:48;11.90;99.90
29207;DHT22;16247;50.840;4.382;2023-02-17T08:51:35;11.90;99.90
29207;DHT22;16247;50.840;4.382;2023-02-17T08:54:02;12.00;99.90
29207;DHT22;16247;50.840;4.382;2023-02-17T08:56:31;12.00;99.90
29207;DHT22;16247;50.840;4.382;2023-02-17T08:58:58;12.10;99.90
29207;DHT22;16247;50.840;4.382;2023-02-17T09:01:25;12.10;99.90
29207;DHT22;16247;50.840;4.382;2023-02-17T09:03:52;12.10;99.90
29207;DHT22;16247;50.840;4.382;2023-02-17T09:06:19;12.00;99.90
29207;DHT22;16247;50.840;4.382;2023-02-17T09:08:46;12.30;99.90
29207;DHT22;16247;50.840;4.382;2023-02-17T09:11:13;12.40;99.90
29207;DHT22;16247;50.840;4.382;2023-02-17T09:13:42;12.40;99.90
29207;DHT22;16247;50.840;4.382;2023-02-17T09:16:12;12.40;99.90
29207;DHT22;16247;50.840;4.382;2023-02-17T09:18:43;12.60;99.90
29207;DHT22;16247;50.840;4.382;2023-02-17T09:21:12;12.50;99.90
29207;DHT22;16247;50.840;4.382;2023-02-17T09:23:39;12.40;99.90
29207;DHT22;16247;50.840;4.382;2023-02-17T09:26:08;12.50;99.90
29207;DHT22;16247;50.840;4.382;2023-02-17T09:28:35;12.50;99.90
29207;DHT22;16247;50.840;4.382;2023-02-17T09:31:13;12.70;99.90
29207;DHT22;16247;50.840;4.382;2023-02-17T09:33:40;12.50;99.90
29207;DHT22;16247;50.840;4.382;2023-02-17T09:36:07;12.60;99.90
29207;DHT22;16247;50.840;4.382;2023-02-17T09:38:33;12.70;99.90
29207;DHT22;16247;50.840;4.382;2023-02-17T09:41:07;12.70;99.90
29207;DHT22;16247;50.840;4.382;2023-02-17T09:43:39;12.70;99.90
29207;DHT22;16247;50.840;4.382;2023-02-17T09:46:23;12.80;99.90
29207;DHT22;16247;50.840;4.382;2023-02-17T09:48:52;12.80;99.90
29207;DHT22;16247;50.840;4.382;2023-02-17T09:51:25;12.90;99.90
29207;DHT22;16247;50.840;4.382;2023-02-17T09:56:34;13.00;99.90
29207;DHT22;16247;50.840;4.382;2023-02-17T09:59:04;13.10;99.90
29207;DHT22;16247;50.840;4.382;2023-02-17T10:01:32;13.30;99.90
29207;DHT22;16247;50.840;4.382;2023-02-17T10:04:23;13.30;99.90
29207;DHT22;16247;50.840;4.382;2023-02-17T10:07:00;13.40;99.90
29207;DHT22;16247;50.840;4.382;2023-02-17T10:09:49;13.50;99.90
29207;DHT22;16247;50.840;4.382;2023-02-17T10:12:30;13.50;99.90
29207;DHT22;16247;50.840;4.382;2023-02-17T10:17:52;13.60;99.90
29207;DHT22;16247;50.840;4.382;2023-02-17T10:20:30;13.50;99.90
29207;DHT22;16247;50.840;4.382;2023-02-17T10:23:12;13.50;99.90
29207;DHT22;16247;50.840;4.382;2023-02-17T10:28:22;13.60;99.90
29207;DHT22;16247;50.840;4.382;2023-02-17T10:31:02;13.50;99.90
29207;DHT22;16247;50.840;4.382;2023-02-17T10:33:46;13.70;99.90
29207;DHT22;16247;50.840;4.382;2023-02-17T10:39:13;13.60;99.90
29207;DHT22;16247;50.840;4.382;2023-02-17T10:41:41;13.70;99.90
29207;DHT22;16247;50.840;4.382;2023-02-17T10:44:13;13.80;99.90
29207;DHT22;16247;50.840;4.382;2023-02-17T10:46:42;13.90;99.90
29207;DHT22;16247;50.840;4.382;2023-02-17T10:49:20;14.00;99.90
29207;DHT22;16247;50.840;4.382;2023-02-17T10:51:46;13.90;99.90
29207;DHT22;16247;50.840;4.382;2023-02-17T10:57:12;14.00;99.90
29207;DHT22;16247;50.840;4.382;2023-02-17T10:59:43;14.10;99.90
29207;DHT22;16247;50.840;4.382;2023-02-17T11:02:16;14.30;99.90
29207;DHT22;16247;50.840;4.382;2023-02-17T11:05:07;14.10;99.90
29207;DHT22;16247;50.840;4.382;2023-02-17T11:08:00;14.10;99.90
29207;DHT22;16247;50.840;4.382;2023-02-17T11:11:23;14.30;99.90
29207;DHT22;16247;50.840;4.382;2023-02-17T11:14:11;14.20;99.90
29207;DHT22;16247;50.840;4.382;2023-02-17T11:16:55;14.10;99.90
29207;DHT22;16247;50.840;4.382;2023-02-17T11:19:32;13.90;99.90
29207;DHT22;16247;50.840;4.382;2023-02-17T11:22:31;14.00;99.90
29207;DHT22;16247;50.840;4.382;2023-02-17T11:25:28;13.90;99.90
29207;DHT22;16247;50.840;4.382;2023-02-17T11:28:21;13.90;99.90
29207;DHT22;16247;50.840;4.382;2023-02-17T11:30:56;14.00;99.90
29207;DHT22;16247;50.840;4.382;2023-02-17T11:33:43;14.00;99.90
29207;DHT22;16247;50.840;4.382;2023-02-17T11:36:22;14.00;99.90
29207;DHT22;16247;50.840;4.382;2023-02-17T11:38:48;13.90;99.90
29207;DHT22;16247;50.840;4.382;2023-02-17T11:41:15;14.00;99.90
29207;DHT22;16247;50.840;4.382;2023-02-17T11:43:53;14.10;99.90
29207;DHT22;16247;50.840;4.382;2023-02-17T11:46:46;14.20;99.90
29207;DHT22;16247;50.840;4.382;2023-02-17T11:57:58;14.30;99.90
29207;DHT22;16247;50.840;4.382;2023-02-17T12:06:42;14.20;99.90
29207;DHT22;16247;50.840;4.382;2023-02-17T12:12:16;14.10;99.90
29207;DHT22;16247;50.840;4.382;2023-02-17T12:26:42;14.00;99.90
29207;DHT22;16247;50.840;4.382;2023-02-17T12:29:16;14.00;99.90
29207;DHT22;16247;50.840;4.382;2023-02-17T12:32:05;14.00;99.90
29207;DHT22;16247;50.840;4.382;2023-02-17T12:34:49;14.00;99.90
29207;DHT22;16247;50.840;4.382;2023-02-17T12:37:49;13.80;99.90
29207;DHT22;16247;50.840;4.382;2023-02-17T12:40:49;13.90;99.90
29207;DHT22;16247;50.840;4.382;2023-02-17T12:43:51;13.70;99.90
29207;DHT22;16247;50.840;4.382;2023-02-17T12:46:46;13.70;99.90
29207;DHT22;16247;50.840;4.382;2023-02-17T12:49:25;13.50;99.90
29207;DHT22;16247;50.840;4.382;2023-02-17T12:51:56;13.40;99.90
29207;DHT22;16247;50.840;4.382;2023-02-17T12:59:38;13.60;99.90
29207;DHT22;16247;50.840;4.382;2023-02-17T13:02:23;13.60;99.90
29207;DHT22;16247;50.840;4.382;2023-02-17T13:04:54;13.40;99.90
29207;DHT22;16247;50.840;4.382;2023-02-17T13:07:45;13.20;99.90
29207;DHT22;16247;50.840;4.382;2023-02-17T13:10:30;13.00;99.90
29207;DHT22;16247;50.840;4.382;2023-02-17T13:13:13;12.90;99.90
29207;DHT22;16247;50.840;4.382;2023-02-17T13:16:08;13.00;99.90
29207;DHT22;16247;50.840;4.382;2023-02-17T13:18:46;13.00;99.90
29207;DHT22;16247;50.840;4.382;2023-02-17T13:21:51;12.90;99.90
29207;DHT22;16247;50.840;4.382;2023-02-17T13:24:52;12.90;99.90
29207;DHT22;16247;50.840;4.382;2023-02-17T13:27:31;13.00;99.90
29207;DHT22;16247;50.840;4.382;2023-02-17T13:32:37;13.10;99.90
29207;DHT22;16247;50.840;4.382;2023-02-17T13:38:01;13.20;99.90
29207;DHT22;16247;50.840;4.382;2023-02-17T13:40:33;13.20;99.90
29207;DHT22;16247;50.840;4.382;2023-02-17T13:43:29;13.10;99.90
29207;DHT22;16247;50.840;4.382;2023-02-17T13:46:01;13.00;99.90
29207;DHT22;16247;50.840;4.382;2023-02-17T13:48:34;12.90;99.90
29207;DHT22;16247;50.840;4.382;2023-02-17T13:51:25;12.90;99.90
29207;DHT22;16247;50.840;4.382;2023-02-17T13:53:54;13.10;99.90
29207;DHT22;16247;50.840;4.382;2023-02-17T13:56:26;13.00;99.90
29207;DHT22;16247;50.840;4.382;2023-02-17T13:58:52;13.00;99.90
29207;DHT22;16247;50.840;4.382;2023-02-17T14:01:28;13.10;99.90
29207;DHT22;16247;50.840;4.382;2023-02-17T14:03:55;13.00;99.90
29207;DHT22;16247;50.840;4.382;2023-02-17T14:06:45;13.20;99.90
29207;DHT22;16247;50.840;4.382;2023-02-17T14:09:33;13.00;99.90
29207;DHT22;16247;50.840;4.382;2023-02-17T14:12:28;13.00;99.90
29207;DHT22;16247;50.840;4.382;2023-02-17T14:14:57;13.00;99.90
29207;DHT22;16247;50.840;4.382;2023-02-17T14:17:31;13.10;99.90
29207;DHT22;16247;50.840;4.382;2023-02-17T14:20:29;13.10;99.90
29207;DHT22;16247;50.840;4.382;2023-02-17T14:25:30;13.10;99.90
29207;DHT22;16247;50.840;4.382;2023-02-17T14:27:59;13.10;99.90
29207;DHT22;16247;50.840;4.382;2023-02-17T14:30:45;13.00;99.90
29207;DHT22;16247;50.840;4.382;2023-02-17T14:33:19;12.90;99.90
29207;DHT22;16247;50.840;4.382;2023-02-17T14:35:57;13.00;99.90
29207;DHT22;16247;50.840;4.382;2023-02-17T14:40:59;12.90;99.90
29207;DHT22;16247;50.840;4.382;2023-02-17T14:43:29;13.00;99.90
29207;DHT22;16247;50.840;4.382;2023-02-17T14:45:57;13.00;99.90
29207;DHT22;16247;50.840;4.382;2023-02-17T14:48:25;13.10;99.90
29207;DHT22;16247;50.840;4.382;2023-02-17T14:50:56;12.90;99.90
29207;DHT22;16247;50.840;4.382;2023-02-17T14:53:34;12.90;99.90
29207;DHT22;16247;50.840;4.382;2023-02-17T14:58:55;13.00;99.90
29207;DHT22;16247;50.840;4.382;2023-02-17T15:01:25;12.90;99.90
29207;DHT22;16247;50.840;4.382;2023-02-17T15:03:53;13.00;99.90
29207;DHT22;16247;50.840;4.382;2023-02-17T15:06:38;13.10;99.90
29207;DHT22;16247;50.840;4.382;2023-02-17T15:09:14;13.10;99.90
29207;DHT22;16247;50.840;4.382;2023-02-17T15:12:01;12.90;99.90
29207;DHT22;16247;50.840;4.382;2023-02-17T15:14:50;12.80;99.90
29207;DHT22;16247;50.840;4.382;2023-02-17T15:17:19;12.80;99.90
29207;DHT22;16247;50.840;4.382;2023-02-17T15:19:44;12.90;99.90
29207;DHT22;16247;50.840;4.382;2023-02-17T15:22:15;12.90;99.90
29207;DHT22;16247;50.840;4.382;2023-02-17T15:24:48;12.90;99.90
29207;DHT22;16247;50.840;4.382;2023-02-17T15:27:24;12.90;99.90
29207;DHT22;16247;50.840;4.382;2023-02-17T15:29:52;12.80;99.90
29207;DHT22;16247;50.840;4.382;2023-02-17T15:32:18;13.10;99.90
29207;DHT22;16247;50.840;4.382;2023-02-17T15:34:45;12.80;99.90
29207;DHT22;16247;50.840;4.382;2023-02-17T15:37:11;12.80;99.90
29207;DHT22;16247;50.840;4.382;2023-02-17T15:39:47;12.80;99.90
29207;DHT22;16247;50.840;4.382;2023-02-17T15:42:13;12.70;99.90
29207;DHT22;16247;50.840;4.382;2023-02-17T15:44:47;12.60;99.90
29207;DHT22;16247;50.840;4.382;2023-02-17T15:47:27;12.70;99.90
29207;DHT22;16247;50.840;4.382;2023-02-17T15:49:54;12.70;99.90
29207;DHT22;16247;50.840;4.382;2023-02-17T15:52:20;12.70;99.90
29207;DHT22;16247;50.840;4.382;2023-02-17T15:54:49;12.70;99.90
29207;DHT22;16247;50.840;4.382;2023-02-17T15:57:23;12.80;99.90
29207;DHT22;16247;50.840;4.382;2023-02-17T15:59:50;12.60;99.90
29207;DHT22;16247;50.840;4.382;2023-02-17T16:02:22;13.00;99.90
29207;DHT22;16247;50.840;4.382;2023-02-17T16:04:49;13.00;99.90
29207;DHT22;16247;50.840;4.382;2023-02-17T16:07:16;13.10;99.90
29207;DHT22;16247;50.840;4.382;2023-02-17T16:09:43;12.90;99.90
29207;DHT22;16247;50.840;4.382;2023-02-17T16:12:14;12.80;99.90
29207;DHT22;16247;50.840;4.382;2023-02-17T16:14:50;12.80;99.90
29207;DHT22;16247;50.840;4.382;2023-02-17T16:17:37;12.70;99.90
29207;DHT22;16247;50.840;4.382;2023-02-17T16:20:18;12.70;99.90
29207;DHT22;16247;50.840;4.382;2023-02-17T16:22:44;12.80;99.90
29207;DHT22;16247;50.840;4.382;2023-02-17T16:25:14;12.80;99.90
29207;DHT22;16247;50.840;4.382;2023-02-17T16:27:47;12.70;99.90
29207;DHT22;16247;50.840;4.382;2023-02-17T16:30:21;12.80;99.90
29207;DHT22;16247;50.840;4.382;2023-02-17T16:32:57;12.60;99.90
29207;DHT22;16247;50.840;4.382;2023-02-17T16:35:30;12.60;99.90
29207;DHT22;16247;50.840;4.382;2023-02-17T16:37:59;12.60;99.90
29207;DHT22;16247;50.840;4.382;2023-02-17T16:40:39;12.80;99.90
29207;DHT22;16247;50.840;4.382;2023-02-17T16:43:17;12.70;99.90
29207;DHT22;16247;50.840;4.382;2023-02-17T16:46:03;12.70;99.90
29207;DHT22;16247;50.840;4.382;2023-02-17T16:48:31;12.40;99.90
29207;DHT22;16247;50.840;4.382;2023-02-17T16:51:01;12.70;99.90
29207;DHT22;16247;50.840;4.382;2023-02-17T16:53:27;12.60;99.90
29207;DHT22;16247;50.840;4.382;2023-02-17T16:55:54;12.40;99.90
29207;DHT22;16247;50.840;4.382;2023-02-17T16:58:27;12.50;99.90
29207;DHT22;16247;50.840;4.382;2023-02-17T17:00:58;12.50;99.90
29207;DHT22;16247;50.840;4.382;2023-02-17T17:03:26;12.50;99.90
29207;DHT22;16247;50.840;4.382;2023-02-17T17:05:53;12.40;99.90
29207;DHT22;16247;50.840;4.382;2023-02-17T17:08:24;12.10;99.90
29207;DHT22;16247;50.840;4.382;2023-02-17T17:11:17;12.10;99.90
29207;DHT22;16247;50.840;4.382;2023-02-17T17:13:44;12.20;99.90
29207;DHT22;16247;50.840;4.382;2023-02-17T17:16:32;12.00;99.90
29207;DHT22;16247;50.840;4.382;2023-02-17T17:19:21;12.10;99.90
29207;DHT22;16247;50.840;4.382;2023-02-17T17:21:51;12.30;99.90
29207;DHT22;16247;50.840;4.382;2023-02-17T17:24:19;12.40;99.90
29207;DHT22;16247;50.840;4.382;2023-02-17T17:27:29;12.20;99.90
29207;DHT22;16247;50.840;4.382;2023-02-17T17:30:16;12.40;99.90